sensor_id;sensor_type;location;lat;lon;timestamp;temperature;humidity
4425;DHT22;2225;53.568;13.266;2024-02-14T00:00:44;9.10;95.60
4425;DHT22;2225;53.568;13.266;2024-02-14T00:03:11;9.10;95.60
4425;DHT22;2225;53.568;13.266;2024-02-14T00:05:38;9.10;95.50
4425;DHT22;2225;53.568;13.266;2024-02-14T00:08:07;9.10;95.50
4425;DHT22;2225;53.568;13.266;2024-02-14T00:10:34;9.10;95.50
4425;DHT22;2225;53.568;13.266;2024-02-14T00:13:01;9.10;95.50
4425;DHT22;2225;53.568;13.266;2024-02-14T00:15:29;9.10;95.50
4425;DHT22;2225;53.568;13.266;2024-02-14T00:17:56;9.00;95.50
4425;DHT22;2225;53.568;13.266;2024-02-14T00:20:23;9.00;95.50
4425;DHT22;2225;53.568;13.266;2024-02-14T00:22:51;9.00;95.50
4425;DHT22;2225;53.568;13.266;2024-02-14T00:25:18;8.90;95.50
4425;DHT22;2225;53.568;13.266;2024-02-14T00:27:46;8.90;95.50
4425;DHT22;2225;53.568;13.266;2024-02-14T00:30:13;8.90;95.50
4425;DHT22;2225;53.568;13.266;2024-02-14T00:32:40;8.80;95.50
4425;DHT22;2225;53.568;13.266;2024-02-14T00:35:08;8.80;95.40
4425;DHT22;2225;53.568;13.266;2024-02-14T00:37:36;8.70;95.40
4425;DHT22;2225;53.568;13.266;2024-02-14T00:40:03;8.70;95.40
4425;DHT22;2225;53.568;13.266;2024-02-14T00:42:31;8.70;95.50
4425;DHT22;2225;53.568;13.266;2024-02-14T00:44:57;8.60;95.50
4425;DHT22;2225;53.568;13.266;2024-02-14T00:47:24;8.60;95.50
4425;DHT22;2225;53.568;13.266;2024-02-14T00:49:52;8.60;95.50
4425;DHT22;2225;53.568;13.266;2024-02-14T00:52:19;8.50;95.40
4425;DHT22;2225;53.568;13.266;2024-02-14T00:54:48;8.50;95.50
4425;DHT22;2225;53.568;13.266;2024-02-14T00:57:15;8.50;95.50
4425;DHT22;2225;53.568;13.266;2024-02-14T00:59:43;8.40;95.60
4425;DHT22;2225;53.568;13.266;2024-02-14T01:02:10;8.40;95.70
4425;DHT22;2225;53.568;13.266;2024-02-14T01:04:37;8.40;95.70
4425;DHT22;2225;53.568;13.266;2024-02-14T01:07:04;8.30;95.70
4425;DHT22;2225;53.568;13.266;2024-02-14T01:09:31;8.30;95.70
4425;DHT22;2225;53.568;13.266;2024-02-14T01:11:59;8.30;95.70
4425;DHT22;2225;53.568;13.266;2024-02-14T01:14:26;8.20;95.70
4425;DHT22;2225;53.568;13.266;2024-02-14T01:16:53;8.20;95.70
4425;DHT22;2225;53.568;13.266;2024-02-14T01:19:20;8.20;95.70
4425;DHT22;2225;53.568;13.266;2024-02-14T01:21:48;8.10;95.70
4425;DHT22;2225;53.568;13.266;2024-02-14T01:24:15;8.10;95.70
4425;DHT22;2225;53.568;13.266;2024-02-14T01:26:43;8.00;95.70
4425;DHT22;2225;53.568;13.266;2024-02-14T01:29:10;8.00;95.70
4425;DHT22;2225;53.568;13.266;2024-02-14T01:31:37;8.00;95.70
4425;DHT22;2225;53.568;13.266;2024-02-14T01:34:04;7.90;95.80
4425;DHT22;2225;53.568;13.266;2024-02-14T01:36:31;7.90;95.90
4425;DHT22;2225;53.568;13.266;2024-02-14T01:38:58;7.80;95.80
4425;DHT22;2225;53.568;13.266;2024-02-14T01:41:25;7.80;95.90
4425;DHT22;2225;53.568;13.266;2024-02-14T01:43:52;7.80;95.90
4425;DHT22;2225;53.568;13.266;2024-02-14T01:46:19;7.70;95.90
4425;DHT22;2225;53.568;13.266;2024-02-14T01:48:46;7.70;95.90
4425;DHT22;2225;53.568;13.266;2024-02-14T01:51:16;7.60;96.00
4425;DHT22;2225;53.568;13.266;2024-02-14T01:53:44;7.60;96.00
4425;DHT22;2225;53.568;13.266;2024-02-14T01:56:12;7.60;96.10
4425;DHT22;2225;53.568;13.266;2024-02-14T01:58:39;7.60;96.10
4425;DHT22;2225;53.568;13.266;2024-02-14T02:01:06;7.50;96.10
4425;DHT22;2225;53.568;13.266;2024-02-14T02:03:33;7.50;96.20
4425;DHT22;2225;53.568;13.266;2024-02-14T02:06:06;7.50;96.20
4425;DHT22;2225;53.568;13.266;2024-02-14T02:08:33;7.50;96.20
4425;DHT22;2225;53.568;13.266;2024-02-14T02:11:00;7.40;96.30
4425;DHT22;2225;53.568;13.266;2024-02-14T02:13:27;7.40;96.30
4425;DHT22;2225;53.568;13.266;2024-02-14T02:15:54;7.40;96.30
4425;DHT22;2225;53.568;13.266;2024-02-14T02:18:21;7.40;96.40
4425;DHT22;2225;53.568;13.266;2024-02-14T02:20:48;7.40;96.40
4425;DHT22;2225;53.568;13.266;2024-02-14T02:23:16;7.40;96.40
4425;DHT22;2225;53.568;13.266;2024-02-14T02:25:43;7.40;96.40
4425;DHT22;2225;53.568;13.266;2024-02-14T02:28:10;7.40;96.50
4425;DHT22;2225;53.568;13.266;2024-02-14T02:30:37;7.40;96.50
4425;DHT22;2225;53.568;13.266;2024-02-14T02:33:05;7.40;96.50
4425;DHT22;2225;53.568;13.266;2024-02-14T02:35:34;7.40;96.50
4425;DHT22;2225;53.568;13.266;2024-02-14T02:38:01;7.50;96.50
4425;DHT22;2225;53.568;13.266;2024-02-14T02:40:28;7.50;96.50
4425;DHT22;2225;53.568;13.266;2024-02-14T02:42:55;7.40;96.50
4425;DHT22;2225;53.568;13.266;2024-02-14T02:45:22;7.50;96.50
4425;DHT22;2225;53.568;13.266;2024-02-14T02:47:49;7.50;96.50
4425;DHT22;2225;53.568;13.266;2024-02-14T02:50:19;7.50;96.40
4425;DHT22;2225;53.568;13.266;2024-02-14T02:52:47;7.50;96.40
4425;DHT22;2225;53.568;13.266;2024-02-14T02:55:14;7.50;96.50
4425;DHT22;2225;53.568;13.266;2024-02-14T02:57:45;7.40;96.40
4425;DHT22;2225;53.568;13.266;2024-02-14T03:00:13;7.50;96.40
4425;DHT22;2225;53.568;13.266;2024-02-14T03:02:40;7.40;96.40
4425;DHT22;2225;53.568;13.266;2024-02-14T03:05:12;7.40;96.40
4425;DHT22;2225;53.568;13.266;2024-02-14T03:07:46;7.40;96.50
4425;DHT22;2225;53.568;13.266;2024-02-14T03:10:14;7.40;96.60
4425;DHT22;2225;53.568;13.266;2024-02-14T03:12:46;7.40;96.60
4425;DHT22;2225;53.568;13.266;2024-02-14T03:15:16;7.40;96.60
4425;DHT22;2225;53.568;13.266;2024-02-14T03:17:45;7.40;96.70
4425;DHT22;2225;53.568;13.266;2024-02-14T03:20:12;7.40;96.60
4425;DHT22;2225;53.568;13.266;2024-02-14T03:22:44;7.40;96.60
4425;DHT22;2225;53.568;13.266;2024-02-14T03:25:16;7.40;96.70
4425;DHT22;2225;53.568;13.266;2024-02-14T03:27:44;7.40;96.70
4425;DHT22;2225;53.568;13.266;2024-02-14T03:30:16;7.40;96.60
4425;DHT22;2225;53.568;13.266;2024-02-14T03:32:48;7.40;96.70
4425;DHT22;2225;53.568;13.266;2024-02-14T03:35:16;7.40;96.70
4425;DHT22;2225;53.568;13.266;2024-02-14T03:37:46;7.40;96.70
4425;DHT22;2225;53.568;13.266;2024-02-14T03:40:15;7.40;96.70
4425;DHT22;2225;53.568;13.266;2024-02-14T03:42:43;7.30;96.70
4425;DHT22;2225;53.568;13.266;2024-02-14T03:45:10;7.30;96.70
4425;DHT22;2225;53.568;13.266;2024-02-14T03:47:37;7.30;96.70
4425;DHT22;2225;53.568;13.266;2024-02-14T03:50:09;7.30;96.80
4425;DHT22;2225;53.568;13.266;2024-02-14T03:52:36;7.30;96.90
4425;DHT22;2225;53.568;13.266;2024-02-14T03:55:04;7.30;96.90
4425;DHT22;2225;53.568;13.266;2024-02-14T03:57:31;7.30;97.00
4425;DHT22;2225;53.568;13.266;2024-02-14T04:00:01;7.30;97.00
4425;DHT22;2225;53.568;13.266;2024-02-14T04:02:37;7.30;97.10
4425;DHT22;2225;53.568;13.266;2024-02-14T04:05:07;7.30;97.10
4425;DHT22;2225;53.568;13.266;2024-02-14T04:07:35;7.30;97.10
4425;DHT22;2225;53.568;13.266;2024-02-14T04:10:04;7.30;97.20
4425;DHT22;2225;53.568;13.266;2024-02-14T04:12:31;7.30;97.20
4425;DHT22;2225;53.568;13.266;2024-02-14T04:14:58;7.30;97.30
4425;DHT22;2225;53.568;13.266;2024-02-14T04:17:25;7.30;97.30
4425;DHT22;2225;53.568;13.266;2024-02-14T04:19:52;7.30;97.30
4425;DHT22;2225;53.568;13.266;2024-02-14T04:22:20;7.30;97.30
4425;DHT22;2225;53.568;13.266;2024-02-14T04:24:47;7.40;97.40
4425;DHT22;2225;53.568;13.266;2024-02-14T04:27:14;7.40;97.40
4425;DHT22;2225;53.568;13.266;2024-02-14T04:29:45;7.40;97.30
4425;DHT22;2225;53.568;13.266;2024-02-14T04:32:13;7.50;97.30
4425;DHT22;2225;53.568;13.266;2024-02-14T04:34:40;7.50;97.30
4425;DHT22;2225;53.568;13.266;2024-02-14T04:37:08;7.50;97.20
4425;DHT22;2225;53.568;13.266;2024-02-14T04:39:45;7.60;97.20
4425;DHT22;2225;53.568;13.266;2024-02-14T04:42:12;7.60;97.10
4425;DHT22;2225;53.568;13.266;2024-02-14T04:44:39;7.60;97.10
4425;DHT22;2225;53.568;13.266;2024-02-14T04:47:06;7.60;97.10
4425;DHT22;2225;53.568;13.266;2024-02-14T04:49:36;7.60;97.10
4425;DHT22;2225;53.568;13.266;2024-02-14T04:52:04;7.60;97.00
4425;DHT22;2225;53.568;13.266;2024-02-14T04:54:31;7.60;96.90
4425;DHT22;2225;53.568;13.266;2024-02-14T04:56:58;7.60;97.10
4425;DHT22;2225;53.568;13.266;2024-02-14T04:59:29;7.60;97.10
4425;DHT22;2225;53.568;13.266;2024-02-14T05:01:56;7.50;97.10
4425;DHT22;2225;53.568;13.266;2024-02-14T05:04:23;7.50;97.10
4425;DHT22;2225;53.568;13.266;2024-02-14T05:06:50;7.50;97.10
4425;DHT22;2225;53.568;13.266;2024-02-14T05:09:22;7.50;97.20
4425;DHT22;2225;53.568;13.266;2024-02-14T05:11:49;7.50;97.30
4425;DHT22;2225;53.568;13.266;2024-02-14T05:14:16;7.50;97.40
4425;DHT22;2225;53.568;13.266;2024-02-14T05:16:44;7.50;97.40
4425;DHT22;2225;53.568;13.266;2024-02-14T05:19:11;7.50;97.40
4425;DHT22;2225;53.568;13.266;2024-02-14T05:21:39;7.50;97.50
4425;DHT22;2225;53.568;13.266;2024-02-14T05:24:06;7.50;97.50
4425;DHT22;2225;53.568;13.266;2024-02-14T05:26:34;7.50;97.50
4425;DHT22;2225;53.568;13.266;2024-02-14T05:29:02;7.50;97.50
4425;DHT22;2225;53.568;13.266;2024-02-14T05:31:43;7.50;97.50
4425;DHT22;2225;53.568;13.266;2024-02-14T05:34:11;7.50;97.50
4425;DHT22;2225;53.568;13.266;2024-02-14T05:36:39;7.60;97.40
4425;DHT22;2225;53.568;13.266;2024-02-14T05:39:05;7.60;97.80
4425;DHT22;2225;53.568;13.266;2024-02-14T05:41:33;7.60;97.40
4425;DHT22;2225;53.568;13.266;2024-02-14T05:44:01;7.60;97.40
4425;DHT22;2225;53.568;13.266;2024-02-14T05:46:28;7.60;97.40
4425;DHT22;2225;53.568;13.266;2024-02-14T05:48:55;7.70;97.50
4425;DHT22;2225;53.568;13.266;2024-02-14T05:51:24;7.70;97.50
4425;DHT22;2225;53.568;13.266;2024-02-14T05:53:51;7.60;97.40
4425;DHT22;2225;53.568;13.266;2024-02-14T05:56:18;7.70;97.50
4425;DHT22;2225;53.568;13.266;2024-02-14T05:58:45;7.70;97.50
4425;DHT22;2225;53.568;13.266;2024-02-14T06:01:12;7.70;97.50
4425;DHT22;2225;53.568;13.266;2024-02-14T06:03:41;7.70;97.50
4425;DHT22;2225;53.568;13.266;2024-02-14T06:06:09;7.70;97.50
4425;DHT22;2225;53.568;13.266;2024-02-14T06:08:36;7.70;97.50
4425;DHT22;2225;53.568;13.266;2024-02-14T06:11:04;7.80;97.50
4425;DHT22;2225;53.568;13.266;2024-02-14T06:13:30;7.80;97.50
4425;DHT22;2225;53.568;13.266;2024-02-14T06:15:57;7.90;97.50
4425;DHT22;2225;53.568;13.266;2024-02-14T06:18:24;7.90;97.50
4425;DHT22;2225;53.568;13.266;2024-02-14T06:20:52;7.90;97.30
4425;DHT22;2225;53.568;13.266;2024-02-14T06:23:18;7.90;97.30
4425;DHT22;2225;53.568;13.266;2024-02-14T06:25:45;8.00;97.40
4425;DHT22;2225;53.568;13.266;2024-02-14T06:28:12;8.00;97.30
4425;DHT22;2225;53.568;13.266;2024-02-14T06:30:39;8.00;97.30
4425;DHT22;2225;53.568;13.266;2024-02-14T06:33:06;8.00;97.20
4425;DHT22;2225;53.568;13.266;2024-02-14T06:35:33;8.00;97.10
4425;DHT22;2225;53.568;13.266;2024-02-14T06:38:01;8.00;97.10
4425;DHT22;2225;53.568;13.266;2024-02-14T06:40:31;8.00;97.10
4425;DHT22;2225;53.568;13.266;2024-02-14T06:42:58;8.00;97.10
4425;DHT22;2225;53.568;13.266;2024-02-14T06:45:27;8.00;97.10
4425;DHT22;2225;53.568;13.266;2024-02-14T06:47:54;8.00;97.10
4425;DHT22;2225;53.568;13.266;2024-02-14T06:50:22;8.10;97.20
4425;DHT22;2225;53.568;13.266;2024-02-14T06:52:51;8.10;97.20
4425;DHT22;2225;53.568;13.266;2024-02-14T06:55:18;8.10;97.20
4425;DHT22;2225;53.568;13.266;2024-02-14T06:57:45;8.10;97.20
4425;DHT22;2225;53.568;13.266;2024-02-14T07:00:13;8.10;97.20
4425;DHT22;2225;53.568;13.266;2024-02-14T07:02:40;8.10;97.20
4425;DHT22;2225;53.568;13.266;2024-02-14T07:05:07;8.10;97.20
4425;DHT22;2225;53.568;13.266;2024-02-14T07:07:35;8.20;97.30
4425;DHT22;2225;53.568;13.266;2024-02-14T07:10:03;8.20;97.30
4425;DHT22;2225;53.568;13.266;2024-02-14T07:12:33;8.20;97.30
4425;DHT22;2225;53.568;13.266;2024-02-14T07:15:00;8.20;97.30
4425;DHT22;2225;53.568;13.266;2024-02-14T07:17:27;8.20;97.40
4425;DHT22;2225;53.568;13.266;2024-02-14T07:19:54;8.30;97.50
4425;DHT22;2225;53.568;13.266;2024-02-14T07:22:21;8.30;97.50
4425;DHT22;2225;53.568;13.266;2024-02-14T07:24:48;8.30;97.50
4425;DHT22;2225;53.568;13.266;2024-02-14T07:27:15;8.40;97.60
4425;DHT22;2225;53.568;13.266;2024-02-14T07:29:45;8.40;97.60
4425;DHT22;2225;53.568;13.266;2024-02-14T07:32:12;8.40;98.00
4425;DHT22;2225;53.568;13.266;2024-02-14T07:34:39;8.40;97.70
4425;DHT22;2225;53.568;13.266;2024-02-14T07:37:07;8.40;97.70
4425;DHT22;2225;53.568;13.266;2024-02-14T07:39:34;8.40;97.70
4425;DHT22;2225;53.568;13.266;2024-02-14T07:42:02;8.40;97.80
4425;DHT22;2225;53.568;13.266;2024-02-14T07:44:29;8.30;97.90
4425;DHT22;2225;53.568;13.266;2024-02-14T07:46:56;8.30;98.00
4425;DHT22;2225;53.568;13.266;2024-02-14T07:49:27;8.30;98.10
4425;DHT22;2225;53.568;13.266;2024-02-14T07:51:54;8.40;98.30
4425;DHT22;2225;53.568;13.266;2024-02-14T07:54:21;8.40;98.30
4425;DHT22;2225;53.568;13.266;2024-02-14T07:56:48;8.30;98.40
4425;DHT22;2225;53.568;13.266;2024-02-14T07:59:15;8.30;98.50
4425;DHT22;2225;53.568;13.266;2024-02-14T08:01:42;8.30;98.50
4425;DHT22;2225;53.568;13.266;2024-02-14T08:04:10;8.30;98.60
4425;DHT22;2225;53.568;13.266;2024-02-14T08:06:37;8.30;98.70
4425;DHT22;2225;53.568;13.266;2024-02-14T08:09:04;8.30;98.80
4425;DHT22;2225;53.568;13.266;2024-02-14T08:11:36;8.30;98.90
4425;DHT22;2225;53.568;13.266;2024-02-14T08:14:03;8.40;98.90
4425;DHT22;2225;53.568;13.266;2024-02-14T08:16:31;8.30;99.00
4425;DHT22;2225;53.568;13.266;2024-02-14T08:18:58;8.40;99.00
4425;DHT22;2225;53.568;13.266;2024-02-14T08:21:27;8.40;99.00
4425;DHT22;2225;53.568;13.266;2024-02-14T08:23:58;8.40;99.10
4425;DHT22;2225;53.568;13.266;2024-02-14T08:26:27;8.50;99.10
4425;DHT22;2225;53.568;13.266;2024-02-14T08:28:55;8.50;99.10
4425;DHT22;2225;53.568;13.266;2024-02-14T08:31:22;8.60;99.10
4425;DHT22;2225;53.568;13.266;2024-02-14T08:33:49;8.60;99.10
4425;DHT22;2225;53.568;13.266;2024-02-14T08:36:17;8.60;99.00
4425;DHT22;2225;53.568;13.266;2024-02-14T08:38:46;8.60;99.00
4425;DHT22;2225;53.568;13.266;2024-02-14T08:41:13;8.60;99.00
4425;DHT22;2225;53.568;13.266;2024-02-14T08:43:40;8.60;99.10
4425;DHT22;2225;53.568;13.266;2024-02-14T08:46:12;8.60;99.20
4425;DHT22;2225;53.568;13.266;2024-02-14T08:48:39;8.60;99.30
4425;DHT22;2225;53.568;13.266;2024-02-14T08:51:15;8.60;99.30
4425;DHT22;2225;53.568;13.266;2024-02-14T08:53:43;8.60;99.40
4425;DHT22;2225;53.568;13.266;2024-02-14T08:56:11;8.70;99.40
4425;DHT22;2225;53.568;13.266;2024-02-14T08:58:39;8.60;99.30
4425;DHT22;2225;53.568;13.266;2024-02-14T09:01:06;8.70;99.40
4425;DHT22;2225;53.568;13.266;2024-02-14T09:03:41;8.70;99.30
4425;DHT22;2225;53.568;13.266;2024-02-14T09:06:15;8.70;99.20
4425;DHT22;2225;53.568;13.266;2024-02-14T09:08:44;8.60;99.30
4425;DHT22;2225;53.568;13.266;2024-02-14T09:11:11;8.60;99.40
4425;DHT22;2225;53.568;13.266;2024-02-14T09:13:39;8.60;99.40
4425;DHT22;2225;53.568;13.266;2024-02-14T09:16:10;8.60;99.50
4425;DHT22;2225;53.568;13.266;2024-02-14T09:18:38;8.60;99.60
4425;DHT22;2225;53.568;13.266;2024-02-14T09:21:06;8.60;99.60
4425;DHT22;2225;53.568;13.266;2024-02-14T09:23:33;8.60;99.60
4425;DHT22;2225;53.568;13.266;2024-02-14T09:26:01;8.60;99.70
4425;DHT22;2225;53.568;13.266;2024-02-14T09:28:29;8.70;99.70
4425;DHT22;2225;53.568;13.266;2024-02-14T09:30:56;8.70;99.60
4425;DHT22;2225;53.568;13.266;2024-02-14T09:33:23;8.80;99.70
4425;DHT22;2225;53.568;13.266;2024-02-14T09:35:50;8.90;99.60
4425;DHT22;2225;53.568;13.266;2024-02-14T09:38:19;9.00;99.40
4425;DHT22;2225;53.568;13.266;2024-02-14T09:40:46;9.00;99.40
4425;DHT22;2225;53.568;13.266;2024-02-14T09:43:31;9.10;99.40
4425;DHT22;2225;53.568;13.266;2024-02-14T09:46:02;9.10;99.30
4425;DHT22;2225;53.568;13.266;2024-02-14T09:48:30;9.20;99.30
4425;DHT22;2225;53.568;13.266;2024-02-14T09:50:58;9.30;99.10
4425;DHT22;2225;53.568;13.266;2024-02-14T09:53:26;9.30;99.00
4425;DHT22;2225;53.568;13.266;2024-02-14T09:55:55;9.30;99.00
4425;DHT22;2225;53.568;13.266;2024-02-14T09:58:23;9.40;98.90
4425;DHT22;2225;53.568;13.266;2024-02-14T10:00:50;9.40;98.90
4425;DHT22;2225;53.568;13.266;2024-02-14T10:03:17;9.50;99.00
4425;DHT22;2225;53.568;13.266;2024-02-14T10:05:45;9.50;98.80
4425;DHT22;2225;53.568;13.266;2024-02-14T10:08:12;9.60;98.80
4425;DHT22;2225;53.568;13.266;2024-02-14T10:10:39;9.70;98.90
4425;DHT22;2225;53.568;13.266;2024-02-14T10:13:07;9.70;98.60
4425;DHT22;2225;53.568;13.266;2024-02-14T10:15:34;9.80;98.50
4425;DHT22;2225;53.568;13.266;2024-02-14T10:18:01;9.80;98.50
4425;DHT22;2225;53.568;13.266;2024-02-14T10:20:30;9.80;98.50
4425;DHT22;2225;53.568;13.266;2024-02-14T10:23:03;9.90;98.60
4425;DHT22;2225;53.568;13.266;2024-02-14T10:25:31;9.90;98.40
4425;DHT22;2225;53.568;13.266;2024-02-14T10:28:04;10.00;98.40
4425;DHT22;2225;53.568;13.266;2024-02-14T10:30:32;10.00;98.40
4425;DHT22;2225;53.568;13.266;2024-02-14T10:32:59;10.00;98.30
4425;DHT22;2225;53.568;13.266;2024-02-14T10:35:39;10.00;98.30
4425;DHT22;2225;53.568;13.266;2024-02-14T10:38:08;10.10;98.30
4425;DHT22;2225;53.568;13.266;2024-02-14T10:40:39;10.10;98.30
4425;DHT22;2225;53.568;13.266;2024-02-14T10:43:09;10.10;98.20
4425;DHT22;2225;53.568;13.266;2024-02-14T10:45:36;10.20;98.30
4425;DHT22;2225;53.568;13.266;2024-02-14T10:48:12;10.10;98.20
4425;DHT22;2225;53.568;13.266;2024-02-14T10:50:41;10.20;98.50
4425;DHT22;2225;53.568;13.266;2024-02-14T10:53:14;10.20;98.40
4425;DHT22;2225;53.568;13.266;2024-02-14T10:55:48;10.30;98.50
4425;DHT22;2225;53.568;13.266;2024-02-14T10:58:16;10.30;98.30
4425;DHT22;2225;53.568;13.266;2024-02-14T11:00:44;10.30;98.30
4425;DHT22;2225;53.568;13.266;2024-02-14T11:03:12;10.40;98.30
4425;DHT22;2225;53.568;13.266;2024-02-14T11:05:46;10.40;98.30
4425;DHT22;2225;53.568;13.266;2024-02-14T11:08:14;10.50;98.30
4425;DHT22;2225;53.568;13.266;2024-02-14T11:10:42;10.60;98.40
4425;DHT22;2225;53.568;13.266;2024-02-14T11:13:12;10.60;98.80
4425;DHT22;2225;53.568;13.266;2024-02-14T11:15:45;10.70;98.40
4425;DHT22;2225;53.568;13.266;2024-02-14T11:18:13;10.80;98.50
4425;DHT22;2225;53.568;13.266;2024-02-14T11:20:40;10.80;98.50
4425;DHT22;2225;53.568;13.266;2024-02-14T11:23:12;10.80;98.60
4425;DHT22;2225;53.568;13.266;2024-02-14T11:25:48;10.80;98.60
4425;DHT22;2225;53.568;13.266;2024-02-14T11:28:17;10.80;98.70
4425;DHT22;2225;53.568;13.266;2024-02-14T11:30:48;10.80;98.80
4425;DHT22;2225;53.568;13.266;2024-02-14T11:33:19;10.80;98.80
4425;DHT22;2225;53.568;13.266;2024-02-14T11:35:49;10.80;98.80
4425;DHT22;2225;53.568;13.266;2024-02-14T11:38:27;10.80;98.90
4425;DHT22;2225;53.568;13.266;2024-02-14T11:40:55;10.80;99.20
4425;DHT22;2225;53.568;13.266;2024-02-14T11:43:25;10.80;98.90
4425;DHT22;2225;53.568;13.266;2024-02-14T11:45:53;10.80;98.90
4425;DHT22;2225;53.568;13.266;2024-02-14T11:48:21;10.80;99.00
4425;DHT22;2225;53.568;13.266;2024-02-14T11:50:52;10.80;99.00
4425;DHT22;2225;53.568;13.266;2024-02-14T11:53:20;10.80;99.20
4425;DHT22;2225;53.568;13.266;2024-02-14T11:55:47;10.80;99.20
4425;DHT22;2225;53.568;13.266;2024-02-14T11:58:16;10.80;99.30
4425;DHT22;2225;53.568;13.266;2024-02-14T12:00:45;10.80;99.40
4425;DHT22;2225;53.568;13.266;2024-02-14T12:03:16;10.80;99.40
4425;DHT22;2225;53.568;13.266;2024-02-14T12:05:46;10.90;99.50
4425;DHT22;2225;53.568;13.266;2024-02-14T12:08:15;10.90;99.50
4425;DHT22;2225;53.568;13.266;2024-02-14T12:10:43;10.90;99.40
4425;DHT22;2225;53.568;13.266;2024-02-14T12:13:14;11.00;99.40
4425;DHT22;2225;53.568;13.266;2024-02-14T12:15:46;11.00;99.40
4425;DHT22;2225;53.568;13.266;2024-02-14T12:18:14;11.00;99.40
4425;DHT22;2225;53.568;13.266;2024-02-14T12:20:43;11.00;99.40
4425;DHT22;2225;53.568;13.266;2024-02-14T12:23:15;11.00;99.40
4425;DHT22;2225;53.568;13.266;2024-02-14T12:25:46;11.10;99.50
4425;DHT22;2225;53.568;13.266;2024-02-14T12:28:17;11.10;99.50
4425;DHT22;2225;53.568;13.266;2024-02-14T12:30:48;11.10;99.50
4425;DHT22;2225;53.568;13.266;2024-02-14T12:33:17;11.10;99.50
4425;DHT22;2225;53.568;13.266;2024-02-14T12:35:45;11.20;99.50
4425;DHT22;2225;53.568;13.266;2024-02-14T12:38:16;11.20;99.50
4425;DHT22;2225;53.568;13.266;2024-02-14T12:40:44;11.20;99.50
4425;DHT22;2225;53.568;13.266;2024-02-14T12:43:12;11.20;99.90
4425;DHT22;2225;53.568;13.266;2024-02-14T12:45:41;11.30;99.50
4425;DHT22;2225;53.568;13.266;2024-02-14T12:48:12;11.30;99.50
4425;DHT22;2225;53.568;13.266;2024-02-14T12:50:40;11.40;99.50
4425;DHT22;2225;53.568;13.266;2024-02-14T12:53:14;11.40;99.50
4425;DHT22;2225;53.568;13.266;2024-02-14T12:55:41;11.50;99.50
4425;DHT22;2225;53.568;13.266;2024-02-14T12:58:08;11.50;99.50
4425;DHT22;2225;53.568;13.266;2024-02-14T13:00:36;11.50;99.50
4425;DHT22;2225;53.568;13.266;2024-02-14T13:03:05;11.50;99.60
4425;DHT22;2225;53.568;13.266;2024-02-14T13:05:32;11.50;99.50
4425;DHT22;2225;53.568;13.266;2024-02-14T13:08:00;11.60;99.60
4425;DHT22;2225;53.568;13.266;2024-02-14T13:10:27;11.60;99.70
4425;DHT22;2225;53.568;13.266;2024-02-14T13:12:55;11.70;99.60
4425;DHT22;2225;53.568;13.266;2024-02-14T13:15:26;11.70;99.50
4425;DHT22;2225;53.568;13.266;2024-02-14T13:17:53;11.70;99.50
4425;DHT22;2225;53.568;13.266;2024-02-14T13:20:20;11.80;99.50
4425;DHT22;2225;53.568;13.266;2024-02-14T13:22:47;11.80;99.50
4425;DHT22;2225;53.568;13.266;2024-02-14T13:25:14;11.80;99.40
4425;DHT22;2225;53.568;13.266;2024-02-14T13:27:43;11.80;99.40
4425;DHT22;2225;53.568;13.266;2024-02-14T13:30:11;11.80;99.50
4425;DHT22;2225;53.568;13.266;2024-02-14T13:32:38;11.80;99.50
4425;DHT22;2225;53.568;13.266;2024-02-14T13:35:06;11.80;99.60
4425;DHT22;2225;53.568;13.266;2024-02-14T13:37:33;11.90;99.60
4425;DHT22;2225;53.568;13.266;2024-02-14T13:40:00;11.90;99.70
4425;DHT22;2225;53.568;13.266;2024-02-14T13:42:30;11.90;99.70
4425;DHT22;2225;53.568;13.266;2024-02-14T13:44:57;11.90;99.70
4425;DHT22;2225;53.568;13.266;2024-02-14T13:47:24;11.90;99.80
4425;DHT22;2225;53.568;13.266;2024-02-14T13:49:51;11.90;99.80
4425;DHT22;2225;53.568;13.266;2024-02-14T13:52:18;12.00;99.90
4425;DHT22;2225;53.568;13.266;2024-02-14T13:54:47;12.00;99.90
4425;DHT22;2225;53.568;13.266;2024-02-14T13:57:14;12.00;99.90
4425;DHT22;2225;53.568;13.266;2024-02-14T13:59:43;12.10;99.90
4425;DHT22;2225;53.568;13.266;2024-02-14T14:02:10;12.10;99.90
4425;DHT22;2225;53.568;13.266;2024-02-14T14:04:36;12.10;99.80
4425;DHT22;2225;53.568;13.266;2024-02-14T14:07:04;12.20;99.80
4425;DHT22;2225;53.568;13.266;2024-02-14T14:09:32;12.20;99.80
4425;DHT22;2225;53.568;13.266;2024-02-14T14:11:59;12.20;99.80
4425;DHT22;2225;53.568;13.266;2024-02-14T14:14:26;12.20;99.80
4425;DHT22;2225;53.568;13.266;2024-02-14T14:16:53;12.20;99.80
4425;DHT22;2225;53.568;13.266;2024-02-14T14:19:20;12.20;99.80
4425;DHT22;2225;53.568;13.266;2024-02-14T14:21:48;12.30;99.70
4425;DHT22;2225;53.568;13.266;2024-02-14T14:24:15;12.30;99.70
4425;DHT22;2225;53.568;13.266;2024-02-14T14:26:42;12.30;99.70
4425;DHT22;2225;53.568;13.266;2024-02-14T14:29:09;12.30;99.70
4425;DHT22;2225;53.568;13.266;2024-02-14T14:31:37;12.30;99.70
4425;DHT22;2225;53.568;13.266;2024-02-14T14:34:04;12.30;99.70
4425;DHT22;2225;53.568;13.266;2024-02-14T14:36:31;12.30;99.70
4425;DHT22;2225;53.568;13.266;2024-02-14T14:38:59;12.30;99.70
4425;DHT22;2225;53.568;13.266;2024-02-14T14:41:27;12.30;99.70
4425;DHT22;2225;53.568;13.266;2024-02-14T14:43:55;12.30;99.80
4425;DHT22;2225;53.568;13.266;2024-02-14T14:46:22;12.30;99.80
4425;DHT22;2225;53.568;13.266;2024-02-14T14:48:49;12.30;99.90
4425;DHT22;2225;53.568;13.266;2024-02-14T14:51:16;12.30;99.80
4425;DHT22;2225;53.568;13.266;2024-02-14T14:53:43;12.30;99.90
4425;DHT22;2225;53.568;13.266;2024-02-14T14:56:10;12.30;99.90
4425;DHT22;2225;53.568;13.266;2024-02-14T14:58:37;12.30;99.90
4425;DHT22;2225;53.568;13.266;2024-02-14T15:01:05;12.30;99.90
4425;DHT22;2225;53.568;13.266;2024-02-14T15:03:32;12.30;99.90
4425;DHT22;2225;53.568;13.266;2024-02-14T15:05:59;12.30;99.90
4425;DHT22;2225;53.568;13.266;2024-02-14T15:08:26;12.30;99.90
4425;DHT22;2225;53.568;13.266;2024-02-14T15:10:55;12.40;99.90
4425;DHT22;2225;53.568;13.266;2024-02-14T15:13:23;12.40;99.90
4425;DHT22;2225;53.568;13.266;2024-02-14T15:15:51;12.40;99.90
4425;DHT22;2225;53.568;13.266;2024-02-14T15:18:19;12.40;99.90
4425;DHT22;2225;53.568;13.266;2024-02-14T15:20:46;12.40;99.90
4425;DHT22;2225;53.568;13.266;2024-02-14T15:23:13;12.40;99.90
4425;DHT22;2225;53.568;13.266;2024-02-14T15:25:40;12.40;99.90
4425;DHT22;2225;53.568;13.266;2024-02-14T15:28:09;12.40;99.90
4425;DHT22;2225;53.568;13.266;2024-02-14T15:30:44;12.40;99.90
4425;DHT22;2225;53.568;13.266;2024-02-14T15:33:30;12.30;99.90
4425;DHT22;2225;53.568;13.266;2024-02-14T15:35:58;12.30;99.90
4425;DHT22;2225;53.568;13.266;2024-02-14T15:38:28;12.30;99.90
4425;DHT22;2225;53.568;13.266;2024-02-14T15:40:55;12.30;99.90
4425;DHT22;2225;53.568;13.266;2024-02-14T15:43:31;12.30;99.90
4425;DHT22;2225;53.568;13.266;2024-02-14T15:50:59;12.40;99.90
4425;DHT22;2225;53.568;13.266;2024-02-14T15:53:25;12.40;99.90
4425;DHT22;2225;53.568;13.266;2024-02-14T15:55:53;12.40;99.90
4425;DHT22;2225;53.568;13.266;2024-02-14T15:58:20;12.40;99.90
4425;DHT22;2225;53.568;13.266;2024-02-14T16:00:47;12.40;99.90
4425;DHT22;2225;53.568;13.266;2024-02-14T16:03:14;12.40;99.90
4425;DHT22;2225;53.568;13.266;2024-02-14T16:05:41;12.50;99.90
4425;DHT22;2225;53.568;13.266;2024-02-14T16:08:16;12.50;99.90